Ana Sayfa
METAR-TAF:

METAR-TAF

Havaalanları :

San Diego International Airport

San Diego, Kaliforniya, Amerika Birleşik Devletleri

Enlem: 32-44-01N, Boylam: 117-10-59W, yükseklik: 4 m

Güncel hava durumu gözlemi

Rapor saat 12:51 UTC de 17 dakika önce yapıldı.
Sakin rüzgar
Sıcaklık 14°C
Nem 88%
Basınç 1017 hPa
Görüş mesafesi: 16.1 km
2100 ft yükseklikte az bulutlu

METAR: KSAN 091251Z 00000KT 10SM FEW021 14/12 A3004 RMK AO2 SLP170 T01390122

Saat: 05:08 (13:08 UTC)

Tahmin

Rapor saat 12:55 UTC de 13 dakika önce yapıldı.
Ayın 09'si saat 13 UTC'den ayın 10'si saat 18 UTC'ye kadar geçerli Tahmin
Rüzgar değişken yönden 4 kt
Görüş mesafesi: 10 km
2100 ft yükseklikte az bulutlu
Ayın 09'si saat 2000 UTC'den
Rüzgar batıdan 9 kt
Görüş mesafesi: 10 km
3500 ft yükseklikte parçalı bulutlu
Ayın 10'si saat 0200 UTC'den
Rüzgar değişken yönden 4 kt
Görüş mesafesi: 10 km
Açık gökyüzü

TAF: KSAN 091255Z 0913/1018 VRB04KT P6SM FEW021 FM092000 28009KT P6SM SCT035 FM100200 VRB04KT P6SM SKC

4.000'den fazla havaalanı için hava durumu gözlemleri ve tahminleri (METAR ve TAF raporları).

Kullanılabilir istasyonlar harita üzerinde sarı ve kırmızı noktalarla gösterilir.

İstasyonun adını görmek için fareyi noktanın üzerinde gezdirin.

Sonrasında hava gözlem ve tahminlerini görmek için tıklayın.

Haritayı değiştirmek için: yaklaştırmak için siyah artı işaretli yeşil düğmeye ve uzaklaştırmak için de eksi işaretli düğmeye hızla tıklayın; bitişik haritalar için yeşil okları kullanın.


METAR-TAF: